createdAt,value
2022-11-02T00:01:41.032Z,5.12
2022-11-02T00:04:08.713Z,4.92
2022-11-02T00:06:35.982Z,4.79
2022-11-02T00:09:06.818Z,4.66
2022-11-02T00:11:34.208Z,5.16
2022-11-02T00:14:01.490Z,5.85
2022-11-02T00:16:28.705Z,6.02
2022-11-02T00:18:56.955Z,5.93
2022-11-02T00:21:25.436Z,5.71
2022-11-02T00:23:54.631Z,5.46
2022-11-02T00:26:21.659Z,5.25
2022-11-02T00:28:49.233Z,5.06
2022-11-02T00:31:16.753Z,4.90
2022-11-02T00:33:44.869Z,4.78
2022-11-02T00:36:12.447Z,5.25
2022-11-02T00:38:41.626Z,5.86
2022-11-02T00:41:08.760Z,5.97
2022-11-02T00:43:36.370Z,5.83
2022-11-02T00:46:05.014Z,5.64
2022-11-02T00:48:32.677Z,5.43
2022-11-02T00:51:01.157Z,5.27
2022-11-02T00:53:28.822Z,5.13
2022-11-02T00:55:55.881Z,5.57
2022-11-02T00:58:23.026Z,6.12
2022-11-02T01:00:50.634Z,6.23
2022-11-02T01:03:17.787Z,6.07
2022-11-02T01:05:45.672Z,5.86
2022-11-02T01:08:13.059Z,5.68
2022-11-02T01:10:44.088Z,5.54
2022-11-02T01:13:15.543Z,5.98
2022-11-02T01:15:42.907Z,6.48
2022-11-02T01:18:10.146Z,6.51
2022-11-02T01:20:37.326Z,6.34
2022-11-02T01:23:05.056Z,6.13
2022-11-02T01:25:32.103Z,5.93
2022-11-02T01:27:59.880Z,5.78
2022-11-02T01:30:27.223Z,6.19
2022-11-02T01:32:54.375Z,6.67
2022-11-02T01:35:21.522Z,6.68
2022-11-02T01:37:48.542Z,6.52
2022-11-02T01:40:16.061Z,6.33
2022-11-02T01:42:43.278Z,6.22
2022-11-02T01:45:12.986Z,6.67
2022-11-02T01:47:42.191Z,7.22
2022-11-02T01:50:15.597Z,7.38
2022-11-02T01:52:42.831Z,7.25
2022-11-02T01:55:24.408Z,7.12
2022-11-02T01:58:00.175Z,7.11
2022-11-02T02:00:27.523Z,7.69
2022-11-02T02:03:09.747Z,8.14
2022-11-02T02:05:40.858Z,8.20
2022-11-02T02:08:09.459Z,8.07
2022-11-02T02:10:37.129Z,7.97
2022-11-02T02:13:07.741Z,8.32
2022-11-02T02:15:41.895Z,8.63
2022-11-02T02:18:14.040Z,8.64
2022-11-02T02:20:44.146Z,8.35
2022-11-02T02:23:32.129Z,8.66
2022-11-02T02:26:30.673Z,8.91
2022-11-02T02:29:04.305Z,8.72
2022-11-02T02:31:33.701Z,8.54
2022-11-02T02:34:28.780Z,8.73
2022-11-02T02:37:10.062Z,8.78
2022-11-02T02:39:41.481Z,8.74
2022-11-02T02:42:35.206Z,8.61
2022-11-02T02:45:19.333Z,8.60
2022-11-02T02:48:05.583Z,8.81
2022-11-02T02:50:36.559Z,8.70
2022-11-02T02:53:03.705Z,8.72
2022-11-02T02:55:32.582Z,8.62
2022-11-02T02:58:00.905Z,8.85
2022-11-02T03:00:28.145Z,8.99
2022-11-02T03:03:02.053Z,8.79
2022-11-02T03:05:34.516Z,8.67
2022-11-02T03:08:08.632Z,8.85
2022-11-02T03:10:51.658Z,9.13
2022-11-02T03:13:28.811Z,9.04
2022-11-02T03:15:59.206Z,8.89
2022-11-02T03:18:53.753Z,8.86
2022-11-02T03:21:38.521Z,9.18
2022-11-02T03:24:19.595Z,9.22
2022-11-02T03:26:55.249Z,9.14
2022-11-02T03:29:32.014Z,9.00
2022-11-02T03:32:10.226Z,9.10
2022-11-02T03:34:46.592Z,9.27
2022-11-02T03:37:19.167Z,9.27
2022-11-02T03:39:50.823Z,9.14
2022-11-02T03:42:23.196Z,9.09
2022-11-02T03:45:00.701Z,9.56
2022-11-02T03:47:30.612Z,9.66
2022-11-02T03:49:58.777Z,9.47
2022-11-02T03:52:28.894Z,9.25
2022-11-02T03:55:17.551Z,9.13
2022-11-02T03:57:49.473Z,9.48
2022-11-02T04:00:23.452Z,9.51
2022-11-02T04:03:02.182Z,9.52
2022-11-02T04:05:32.257Z,9.18
2022-11-02T04:08:20.307Z,9.33
2022-11-02T04:11:09.915Z,9.69
2022-11-02T04:13:56.773Z,9.62
2022-11-02T04:16:28.285Z,9.41
2022-11-02T04:19:15.954Z,9.33
2022-11-02T04:22:02.065Z,9.75
2022-11-02T04:24:50.001Z,9.98
2022-11-02T04:34:54.571Z,9.75
2022-11-02T04:37:40.665Z,9.97
2022-11-02T04:40:08.638Z,9.87
2022-11-02T04:42:36.004Z,9.74
2022-11-02T04:45:03.146Z,9.53
2022-11-02T04:47:30.424Z,9.45
2022-11-02T04:49:57.455Z,9.84
2022-11-02T04:52:24.661Z,10.11
2022-11-02T04:54:51.957Z,10.06
2022-11-02T04:57:19.320Z,9.86
2022-11-02T04:59:46.579Z,9.69
2022-11-02T05:02:14.080Z,9.96
2022-11-02T05:04:41.715Z,10.18
2022-11-02T05:07:10.509Z,10.11
2022-11-02T05:09:37.706Z,9.93
2022-11-02T05:12:05.576Z,9.64
2022-11-02T05:14:33.029Z,9.42
2022-11-02T05:17:00.978Z,9.78
2022-11-02T05:19:28.366Z,9.91
2022-11-02T05:21:55.812Z,9.92
2022-11-02T05:24:23.634Z,9.76
2022-11-02T05:26:53.860Z,9.51
2022-11-02T05:29:23.097Z,9.38
2022-11-02T05:31:50.993Z,9.87
2022-11-02T05:34:18.504Z,10.27
2022-11-02T05:36:48.413Z,10.10
2022-11-02T05:39:15.936Z,9.93
2022-11-02T05:41:43.150Z,9.65
2022-11-02T05:44:10.457Z,9.45
2022-11-02T05:46:39.596Z,9.83
2022-11-02T05:49:06.624Z,10.07
2022-11-02T05:51:33.702Z,10.08
2022-11-02T05:54:00.733Z,9.92
2022-11-02T05:56:28.090Z,9.72
2022-11-02T05:58:55.708Z,9.44
2022-11-02T06:01:23.080Z,9.68
2022-11-02T06:03:53.374Z,9.82
2022-11-02T06:06:21.214Z,9.76
2022-11-02T06:08:48.653Z,9.49
2022-11-02T06:11:15.646Z,9.39
2022-11-02T06:13:42.850Z,9.33
2022-11-02T06:16:11.357Z,9.56
2022-11-02T06:18:39.013Z,9.92
2022-11-02T06:21:06.401Z,9.90
2022-11-02T06:23:33.521Z,9.63
2022-11-02T06:26:00.657Z,9.46
2022-11-02T06:28:28.121Z,9.51
2022-11-02T06:30:55.765Z,9.90
2022-11-02T06:33:22.916Z,9.75
2022-11-02T06:35:54.077Z,9.62
2022-11-02T06:38:21.339Z,9.52
2022-11-02T06:40:59.051Z,9.33
2022-11-02T06:43:26.501Z,9.78
2022-11-02T06:45:57.494Z,9.72
2022-11-02T06:48:28.595Z,9.65
2022-11-02T06:50:58.477Z,9.46
2022-11-02T06:53:25.550Z,9.26
2022-11-02T06:55:56.367Z,9.62
2022-11-02T06:58:24.674Z,9.66
2022-11-02T07:00:56.582Z,9.51
2022-11-02T07:03:23.775Z,9.37
2022-11-02T07:05:52.074Z,9.05
2022-11-02T07:08:19.774Z,9.16
2022-11-02T07:10:46.868Z,9.43
2022-11-02T07:13:13.858Z,9.55
2022-11-02T07:15:40.921Z,9.23
2022-11-02T07:18:08.677Z,9.14
2022-11-02T07:20:35.878Z,9.17
2022-11-02T07:23:04.448Z,9.38
2022-11-02T07:25:32.408Z,9.46
2022-11-02T07:28:00.310Z,9.41
2022-11-02T07:30:32.255Z,9.39
2022-11-02T07:32:59.237Z,9.32
2022-11-02T07:35:26.264Z,9.69
2022-11-02T07:38:00.562Z,9.70
2022-11-02T07:40:28.590Z,9.42
2022-11-02T07:42:56.165Z,9.25
2022-11-02T07:45:31.759Z,9.09
2022-11-02T07:47:58.825Z,9.46
2022-11-02T07:50:27.189Z,9.79
2022-11-02T07:52:56.037Z,9.71
2022-11-02T07:55:24.772Z,9.49
2022-11-02T07:57:59.151Z,9.29
2022-11-02T08:00:28.952Z,9.47
2022-11-02T08:02:57.039Z,9.40
2022-11-02T08:05:24.381Z,9.22
2022-11-02T08:07:58.690Z,9.17
2022-11-02T08:10:25.864Z,8.90
2022-11-02T08:12:52.972Z,9.14
2022-11-02T08:15:20.027Z,9.31
2022-11-02T08:17:47.080Z,9.40
2022-11-02T08:20:14.287Z,9.36
2022-11-02T08:22:41.390Z,9.21
2022-11-02T08:25:08.744Z,9.30
2022-11-02T08:27:35.855Z,9.46
2022-11-02T08:30:02.888Z,9.24
2022-11-02T08:32:30.036Z,9.07
2022-11-02T08:34:57.220Z,8.93
2022-11-02T08:37:24.328Z,9.03
2022-11-02T08:39:51.383Z,9.26
2022-11-02T08:42:18.550Z,9.22
2022-11-02T08:44:45.535Z,9.10
2022-11-02T08:47:12.718Z,9.07
2022-11-02T08:49:39.766Z,9.14
2022-11-02T08:52:06.889Z,9.50
2022-11-02T08:54:33.990Z,9.80
2022-11-02T08:57:01.199Z,9.58
2022-11-02T08:59:28.191Z,9.14
2022-11-02T09:01:55.339Z,9.11
2022-11-02T09:04:23.105Z,9.46
2022-11-02T09:06:50.148Z,9.66
2022-11-02T09:09:17.298Z,9.37
2022-11-02T09:11:44.334Z,9.20
2022-11-02T09:14:11.421Z,9.05
2022-11-02T09:16:41.352Z,9.20
2022-11-02T09:19:08.987Z,9.46
2022-11-02T09:21:36.076Z,9.23
2022-11-02T09:24:03.371Z,9.19
2022-11-02T09:26:30.313Z,9.13
2022-11-02T09:28:57.312Z,9.07
2022-11-02T09:31:24.861Z,9.45
2022-11-02T09:33:51.836Z,9.58
2022-11-02T09:36:18.843Z,9.39
2022-11-02T09:38:45.824Z,8.95
2022-11-02T09:41:36.135Z,8.84
2022-11-02T09:44:10.119Z,9.16
2022-11-02T09:46:40.336Z,9.25
2022-11-02T09:49:12.204Z,9.10
2022-11-02T09:51:41.540Z,8.97
2022-11-02T09:54:44.287Z,8.76
2022-11-02T09:57:16.716Z,8.99
2022-11-02T09:59:43.813Z,8.98
2022-11-02T10:02:18.833Z,8.92
2022-11-02T10:05:07.834Z,8.75
2022-11-02T10:07:44.082Z,8.85
2022-11-02T10:10:22.569Z,9.10
2022-11-02T10:13:19.264Z,9.23
2022-11-02T10:16:06.102Z,8.95
2022-11-02T10:18:33.159Z,8.76
2022-11-02T10:21:02.161Z,9.09
2022-11-02T10:23:30.910Z,9.12
2022-11-02T10:25:58.533Z,8.96
2022-11-02T10:28:31.459Z,9.03
2022-11-02T10:30:58.454Z,8.99
2022-11-02T10:33:26.989Z,9.37
2022-11-02T10:36:18.618Z,9.57
2022-11-02T10:38:52.567Z,9.48
2022-11-02T10:41:30.154Z,9.27
2022-11-02T10:44:32.906Z,9.01
2022-11-02T10:47:15.396Z,9.35
2022-11-02T10:50:16.339Z,9.69
2022-11-02T10:52:44.819Z,9.62
2022-11-02T10:55:34.577Z,9.36
2022-11-02T10:58:02.052Z,9.12
2022-11-02T11:00:36.060Z,9.36
2022-11-02T11:03:13.909Z,9.61
2022-11-02T11:05:56.716Z,9.69
2022-11-02T11:08:35.978Z,9.37
2022-11-02T11:11:18.890Z,9.11
2022-11-02T11:16:44.825Z,9.83
2022-11-02T11:19:40.004Z,9.49
2022-11-02T11:22:30.251Z,9.39
2022-11-02T11:25:23.064Z,9.37
2022-11-02T11:27:54.681Z,9.86
2022-11-02T11:33:23.244Z,9.81
2022-11-02T11:35:50.432Z,9.74
2022-11-02T11:38:19.985Z,9.48
2022-11-02T11:40:48.912Z,9.62
2022-11-02T11:43:17.002Z,9.78
2022-11-02T11:46:06.859Z,9.84
2022-11-02T11:48:45.602Z,9.66
2022-11-02T11:51:38.760Z,9.19
2022-11-02T11:54:27.115Z,9.63
2022-11-02T11:56:58.620Z,9.86
2022-11-02T11:59:29.936Z,9.62
2022-11-02T12:02:00.907Z,9.58
2022-11-02T12:04:28.819Z,9.51
2022-11-02T12:07:02.612Z,9.96
2022-11-02T12:10:00.552Z,10.10
2022-11-02T12:13:26.373Z,9.93
2022-11-02T12:16:35.243Z,9.67
2022-11-02T12:19:40.037Z,10.01
2022-11-02T12:22:13.779Z,10.25
2022-11-02T12:25:04.710Z,10.14
2022-11-02T12:27:47.753Z,9.90
2022-11-02T12:30:27.672Z,9.76
2022-11-02T12:33:05.412Z,9.92
2022-11-02T12:35:42.875Z,10.18
2022-11-02T12:38:18.727Z,10.11
2022-11-02T12:40:51.748Z,9.93
2022-11-02T12:43:38.982Z,9.59
2022-11-02T12:46:36.999Z,9.87
2022-11-02T12:49:35.640Z,10.09
2022-11-02T12:52:25.568Z,9.85
2022-11-02T12:54:55.990Z,9.56
2022-11-02T12:57:25.277Z,9.52
2022-11-02T12:59:54.938Z,9.90
2022-11-02T13:02:26.558Z,10.07
2022-11-02T13:05:00.464Z,9.87
2022-11-02T13:07:42.835Z,9.64
2022-11-02T13:10:30.609Z,9.54
2022-11-02T13:12:59.425Z,9.82
2022-11-02T13:15:26.552Z,9.78
2022-11-02T13:17:56.479Z,9.56
2022-11-02T13:20:25.864Z,9.48
2022-11-02T13:23:02.439Z,9.43
2022-11-02T13:26:02.393Z,9.69
2022-11-02T13:29:08.753Z,9.62
2022-11-02T13:31:59.159Z,9.42
2022-11-02T13:34:39.641Z,9.29
2022-11-02T13:37:26.385Z,9.75
2022-11-02T13:40:01.738Z,9.65
2022-11-02T13:43:03.627Z,9.30
2022-11-02T13:46:10.185Z,9.22
2022-11-02T13:49:02.917Z,9.40
2022-11-02T13:51:37.635Z,9.52
2022-11-02T13:54:55.698Z,9.44
2022-11-02T13:57:57.287Z,9.26
2022-11-02T14:00:32.234Z,9.33
2022-11-02T14:03:08.405Z,9.39
2022-11-02T14:05:45.916Z,9.54
2022-11-02T14:08:21.827Z,9.25
2022-11-02T14:11:31.237Z,9.27
2022-11-02T14:14:25.138Z,9.66
2022-11-02T14:16:58.646Z,9.47
2022-11-02T14:19:52.241Z,9.37
2022-11-02T14:22:22.524Z,9.27
2022-11-02T14:24:54.132Z,9.59
2022-11-02T14:35:22.499Z,9.33
2022-11-02T14:38:17.484Z,9.62
2022-11-02T14:41:12.416Z,9.70
2022-11-02T14:43:39.426Z,9.67
2022-11-02T14:46:25.113Z,9.40
2022-11-02T14:48:53.776Z,9.41
2022-11-02T14:51:32.479Z,9.84
2022-11-02T14:54:10.630Z,9.79
2022-11-02T14:57:01.959Z,9.62
2022-11-02T14:59:40.361Z,9.35
2022-11-02T15:02:20.097Z,9.61
2022-11-02T15:04:49.319Z,9.92
2022-11-02T15:07:21.098Z,9.67
2022-11-02T15:10:01.620Z,9.54
2022-11-02T15:12:30.097Z,9.37
2022-11-02T15:15:31.786Z,9.65
2022-11-02T15:18:00.257Z,9.69
2022-11-02T15:20:34.559Z,9.67
2022-11-02T15:23:09.178Z,9.58
2022-11-02T15:25:39.450Z,9.54
2022-11-02T15:28:14.879Z,9.84
2022-11-02T15:30:59.835Z,10.10
2022-11-02T15:33:42.162Z,10.01
2022-11-02T15:36:18.343Z,9.88
2022-11-02T15:38:49.625Z,9.66
2022-11-02T15:41:39.322Z,9.93
2022-11-02T15:44:27.753Z,10.21
2022-11-02T15:47:13.611Z,10.08
2022-11-02T15:49:59.860Z,9.90
2022-11-02T15:53:16.584Z,9.81
2022-11-02T15:55:54.143Z,10.36
2022-11-02T15:58:33.893Z,10.57
2022-11-02T16:01:25.369Z,10.44
2022-11-02T16:03:58.367Z,10.07
2022-11-02T16:06:30.557Z,9.85
2022-11-02T16:08:59.057Z,10.25
2022-11-02T16:11:26.300Z,10.44
2022-11-02T16:14:08.484Z,10.45
2022-11-02T16:16:49.387Z,10.33
2022-11-02T16:19:19.291Z,10.06
2022-11-02T16:21:46.868Z,9.95
2022-11-02T16:24:14.095Z,10.35
2022-11-02T16:26:42.109Z,10.68
2022-11-02T16:29:09.417Z,10.71
2022-11-02T16:31:36.477Z,10.52
2022-11-02T16:34:05.362Z,10.08
2022-11-02T16:36:35.989Z,9.90
2022-11-02T16:39:17.472Z,10.19
2022-11-02T16:41:49.643Z,10.58
2022-11-02T16:44:18.885Z,10.44
2022-11-02T16:46:51.122Z,10.32
2022-11-02T16:49:19.865Z,10.05
2022-11-02T16:51:53.541Z,9.87
2022-11-02T16:54:38.461Z,10.31
2022-11-02T16:57:11.547Z,10.69
2022-11-02T17:00:23.760Z,10.57
2022-11-02T17:02:50.813Z,10.21
2022-11-02T17:05:25.467Z,10.02
2022-11-02T17:08:00.292Z,9.89
2022-11-02T17:10:28.568Z,10.27
2022-11-02T17:12:55.689Z,10.52
2022-11-02T17:15:25.091Z,10.39
2022-11-02T17:18:14.167Z,10.11
2022-11-02T17:20:41.415Z,9.94
2022-11-02T17:23:10.879Z,10.36
2022-11-02T17:25:39.392Z,10.68
2022-11-02T17:28:35.114Z,10.58
2022-11-02T17:31:02.269Z,10.35
2022-11-02T17:33:31.150Z,10.07
2022-11-02T17:36:07.020Z,9.93
2022-11-02T17:38:34.202Z,10.34
2022-11-02T17:41:02.635Z,10.51
2022-11-02T17:43:29.791Z,10.47
2022-11-02T17:46:00.625Z,10.23
2022-11-02T17:48:31.462Z,10.00
2022-11-02T17:51:00.231Z,10.19
2022-11-02T17:53:27.599Z,10.35
2022-11-02T17:55:56.388Z,10.39
2022-11-02T17:58:23.454Z,10.25
2022-11-02T18:00:54.140Z,9.96
2022-11-02T18:03:25.368Z,10.24
2022-11-02T18:05:57.321Z,10.28
2022-11-02T18:08:27.397Z,10.19
2022-11-02T18:10:54.713Z,10.10
2022-11-02T18:13:23.126Z,10.02
2022-11-02T18:15:50.788Z,10.39
2022-11-02T18:18:17.839Z,10.47
2022-11-02T18:20:44.985Z,10.45
2022-11-02T18:23:19.991Z,10.32
2022-11-02T18:25:47.290Z,10.05
2022-11-02T18:28:14.623Z,10.31
2022-11-02T18:30:43.624Z,10.50
2022-11-02T18:33:13.407Z,10.38
2022-11-02T18:35:42.378Z,10.32
2022-11-02T18:38:09.577Z,10.10
2022-11-02T18:40:36.622Z,10.40
2022-11-02T18:43:04.055Z,10.64
2022-11-02T18:45:31.470Z,10.61
2022-11-02T18:47:58.890Z,10.45
2022-11-02T18:50:26.171Z,10.24
2022-11-02T18:52:53.495Z,10.57
2022-11-02T18:55:20.647Z,10.58
2022-11-02T18:57:50.574Z,10.45
2022-11-02T19:00:18.535Z,10.34
2022-11-02T19:02:45.820Z,10.50
2022-11-02T19:05:31.982Z,10.84
2022-11-02T19:08:19.094Z,10.82
2022-11-02T19:10:47.642Z,10.56
2022-11-02T19:13:14.720Z,10.42
2022-11-02T19:15:42.918Z,10.69
2022-11-02T19:18:10.209Z,10.78
2022-11-02T19:20:37.314Z,10.77
2022-11-02T19:23:04.622Z,10.61
2022-11-02T19:25:31.829Z,10.59
2022-11-02T19:27:59.373Z,10.97
2022-11-02T19:30:26.626Z,11.11
2022-11-02T19:32:53.765Z,11.05
2022-11-02T19:35:20.951Z,10.74
2022-11-02T19:37:47.975Z,10.67
2022-11-02T19:40:15.319Z,11.11
2022-11-02T19:42:42.468Z,11.14
2022-11-02T19:45:16.710Z,11.00
2022-11-02T19:47:44.544Z,10.89
2022-11-02T19:50:11.605Z,10.70
2022-11-02T19:52:38.742Z,11.00
2022-11-02T19:55:06.714Z,11.08
2022-11-02T19:57:33.867Z,11.02
2022-11-02T20:00:01.017Z,10.76
2022-11-02T20:02:28.144Z,10.49
2022-11-02T20:04:55.407Z,10.87
2022-11-02T20:07:22.406Z,11.14
2022-11-02T20:09:49.412Z,11.05
2022-11-02T20:12:16.629Z,10.71
2022-11-02T20:14:43.940Z,10.67
2022-11-02T20:17:30.104Z,10.94
2022-11-02T20:19:58.176Z,10.78
2022-11-02T20:22:25.334Z,10.69
2022-11-02T20:24:52.506Z,10.47
2022-11-02T20:27:19.539Z,10.77
2022-11-02T20:29:46.583Z,10.84
2022-11-02T20:32:13.719Z,10.60
2022-11-02T20:34:40.799Z,10.58
2022-11-02T20:37:07.918Z,10.68
2022-11-02T20:39:35.277Z,10.91
2022-11-02T20:42:02.332Z,10.71
2022-11-02T20:44:29.463Z,10.71
2022-11-02T20:46:56.462Z,10.81
2022-11-02T20:49:51.581Z,11.09
2022-11-02T20:52:11.606Z,11.04
2022-11-02T20:54:38.752Z,10.98
2022-11-02T20:57:05.906Z,10.86
2022-11-02T20:59:33.053Z,11.09
2022-11-02T21:02:00.226Z,11.27
2022-11-02T21:04:27.497Z,11.20
2022-11-02T21:06:54.493Z,10.91
2022-11-02T21:09:21.487Z,10.80
2022-11-02T21:12:07.367Z,11.10
2022-11-02T21:14:34.399Z,11.32
2022-11-02T21:17:03.156Z,11.18
2022-11-02T21:19:30.323Z,10.86
2022-11-02T21:22:00.066Z,10.86
2022-11-02T21:24:28.520Z,10.98
2022-11-02T21:26:55.766Z,11.16
2022-11-02T21:29:22.910Z,11.19
2022-11-02T21:31:50.004Z,11.09
2022-11-02T21:34:17.008Z,10.93
2022-11-02T21:36:44.158Z,11.10
2022-11-02T21:39:11.203Z,11.40
2022-11-02T21:41:39.165Z,11.35
2022-11-02T21:44:07.174Z,11.23
2022-11-02T21:46:34.299Z,10.82
2022-11-02T21:49:01.481Z,10.95
2022-11-02T21:51:28.926Z,11.29
2022-11-02T21:53:57.066Z,11.30
2022-11-02T21:56:26.087Z,11.14
2022-11-02T21:58:54.137Z,10.80
2022-11-02T22:01:42.191Z,10.89
2022-11-02T22:04:09.320Z,11.15
2022-11-02T22:06:37.883Z,11.12
2022-11-02T22:09:06.669Z,11.00
2022-11-02T22:11:34.154Z,10.88
2022-11-02T22:14:01.445Z,11.25
2022-11-02T22:16:36.335Z,11.49
2022-11-02T22:19:13.831Z,11.35
2022-11-02T22:21:42.933Z,11.20
2022-11-02T22:24:10.316Z,11.07
2022-11-02T22:26:38.042Z,11.29
2022-11-02T22:29:05.841Z,11.37
2022-11-02T22:31:34.563Z,11.10
2022-11-02T22:34:02.855Z,10.92
2022-11-02T22:36:31.698Z,10.81
2022-11-02T22:38:59.744Z,11.06
2022-11-02T22:41:28.535Z,11.16
2022-11-02T22:43:59.786Z,11.13
2022-11-02T22:46:27.633Z,11.02
2022-11-02T22:48:56.084Z,10.88
2022-11-02T22:51:25.066Z,11.21
2022-11-02T22:53:52.252Z,11.24
2022-11-02T22:56:20.456Z,11.27
2022-11-02T22:58:48.091Z,10.98
2022-11-02T23:01:18.598Z,10.69
2022-11-02T23:03:46.487Z,11.07
2022-11-02T23:06:13.739Z,11.19
2022-11-02T23:08:42.525Z,11.09
2022-11-02T23:11:22.244Z,10.86
2022-11-02T23:13:56.777Z,10.69
2022-11-02T23:16:47.207Z,10.92
2022-11-02T23:19:31.588Z,11.10
2022-11-02T23:22:21.935Z,10.78
2022-11-02T23:25:11.629Z,10.70
2022-11-02T23:28:27.620Z,10.61
2022-11-02T23:31:13.504Z,10.97
2022-11-02T23:33:41.744Z,11.06
2022-11-02T23:36:13.143Z,10.93
2022-11-02T23:39:02.905Z,10.68
2022-11-02T23:41:30.972Z,10.73
2022-11-02T23:44:14.815Z,10.89
2022-11-02T23:46:42.587Z,10.94
2022-11-02T23:49:10.254Z,10.80
2022-11-02T23:51:56.080Z,10.57
2022-11-02T23:54:41.960Z,10.70
2022-11-02T23:57:09.067Z,10.85
2022-11-02T23:59:36.212Z,10.73
